sensor_id;sensor_type;location;lat;lon;timestamp;P1;durP1;ratioP1;P2;durP2;ratioP2
23814;SDS011;12088;53.078;8.720;2023-10-09T00:01:42;5.23;;;2.27;;
23814;SDS011;12088;53.078;8.720;2023-10-09T00:04:11;8.70;;;2.57;;
23814;SDS011;12088;53.078;8.720;2023-10-09T00:06:39;4.93;;;2.60;;
23814;SDS011;12088;53.078;8.720;2023-10-09T00:09:07;3.87;;;2.60;;
23814;SDS011;12088;53.078;8.720;2023-10-09T00:11:43;3.77;;;2.20;;
23814;SDS011;12088;53.078;8.720;2023-10-09T00:14:10;5.40;;;2.50;;
23814;SDS011;12088;53.078;8.720;2023-10-09T00:16:36;6.60;;;2.50;;
23814;SDS011;12088;53.078;8.720;2023-10-09T00:19:08;5.80;;;2.80;;
23814;SDS011;12088;53.078;8.720;2023-10-09T00:21:46;4.37;;;2.40;;
23814;SDS011;12088;53.078;8.720;2023-10-09T00:24:12;8.30;;;2.20;;
23814;SDS011;12088;53.078;8.720;2023-10-09T00:26:45;4.97;;;2.43;;
23814;SDS011;12088;53.078;8.720;2023-10-09T00:29:14;6.53;;;2.50;;
23814;SDS011;12088;53.078;8.720;2023-10-09T00:31:59;6.23;;;2.40;;
23814;SDS011;12088;53.078;8.720;2023-10-09T00:34:38;5.07;;;2.40;;
23814;SDS011;12088;53.078;8.720;2023-10-09T00:37:11;7.70;;;3.47;;
23814;SDS011;12088;53.078;8.720;2023-10-09T00:39:57;4.47;;;2.50;;
23814;SDS011;12088;53.078;8.720;2023-10-09T00:42:23;4.57;;;2.40;;
23814;SDS011;12088;53.078;8.720;2023-10-09T00:44:54;5.10;;;2.40;;
23814;SDS011;12088;53.078;8.720;2023-10-09T00:47:21;5.80;;;2.50;;
23814;SDS011;12088;53.078;8.720;2023-10-09T00:49:49;6.40;;;2.60;;
23814;SDS011;12088;53.078;8.720;2023-10-09T00:52:19;6.47;;;2.73;;
23814;SDS011;12088;53.078;8.720;2023-10-09T00:54:56;4.53;;;2.57;;
23814;SDS011;12088;53.078;8.720;2023-10-09T00:57:27;4.90;;;2.40;;
23814;SDS011;12088;53.078;8.720;2023-10-09T00:59:54;4.63;;;2.40;;
23814;SDS011;12088;53.078;8.720;2023-10-09T01:02:36;4.23;;;2.33;;
23814;SDS011;12088;53.078;8.720;2023-10-09T01:05:07;5.63;;;2.57;;
23814;SDS011;12088;53.078;8.720;2023-10-09T01:07:59;7.57;;;2.93;;
23814;SDS011;12088;53.078;8.720;2023-10-09T01:10:25;3.47;;;2.67;;
23814;SDS011;12088;53.078;8.720;2023-10-09T01:12:59;8.57;;;3.00;;
23814;SDS011;12088;53.078;8.720;2023-10-09T01:15:24;5.67;;;2.50;;
23814;SDS011;12088;53.078;8.720;2023-10-09T01:18:08;7.13;;;2.67;;
23814;SDS011;12088;53.078;8.720;2023-10-09T01:20:34;6.33;;;2.53;;
23814;SDS011;12088;53.078;8.720;2023-10-09T01:23:07;8.03;;;2.60;;
23814;SDS011;12088;53.078;8.720;2023-10-09T01:25:34;6.40;;;2.87;;
23814;SDS011;12088;53.078;8.720;2023-10-09T01:28:08;7.30;;;2.70;;
23814;SDS011;12088;53.078;8.720;2023-10-09T01:30:34;6.17;;;2.67;;
23814;SDS011;12088;53.078;8.720;2023-10-09T01:33:06;7.87;;;2.97;;
23814;SDS011;12088;53.078;8.720;2023-10-09T01:35:37;4.57;;;2.40;;
23814;SDS011;12088;53.078;8.720;2023-10-09T01:38:12;3.67;;;2.67;;
23814;SDS011;12088;53.078;8.720;2023-10-09T01:40:38;7.03;;;2.77;;
23814;SDS011;12088;53.078;8.720;2023-10-09T01:43:04;5.57;;;2.73;;
23814;SDS011;12088;53.078;8.720;2023-10-09T01:45:34;4.13;;;2.67;;
23814;SDS011;12088;53.078;8.720;2023-10-09T01:48:11;5.53;;;2.93;;
23814;SDS011;12088;53.078;8.720;2023-10-09T01:50:39;7.33;;;2.43;;
23814;SDS011;12088;53.078;8.720;2023-10-09T01:53:06;12.53;;;3.23;;
23814;SDS011;12088;53.078;8.720;2023-10-09T01:55:33;4.70;;;2.40;;
23814;SDS011;12088;53.078;8.720;2023-10-09T01:58:05;6.00;;;2.73;;
23814;SDS011;12088;53.078;8.720;2023-10-09T02:00:47;8.33;;;2.80;;
23814;SDS011;12088;53.078;8.720;2023-10-09T02:03:20;7.33;;;2.80;;
23814;SDS011;12088;53.078;8.720;2023-10-09T02:05:49;5.80;;;2.80;;
23814;SDS011;12088;53.078;8.720;2023-10-09T02:08:17;4.50;;;3.00;;
23814;SDS011;12088;53.078;8.720;2023-10-09T02:10:47;6.07;;;2.93;;
23814;SDS011;12088;53.078;8.720;2023-10-09T02:13:13;7.50;;;2.80;;
23814;SDS011;12088;53.078;8.720;2023-10-09T02:15:55;6.73;;;3.13;;
23814;SDS011;12088;53.078;8.720;2023-10-09T02:18:21;7.03;;;2.93;;
23814;SDS011;12088;53.078;8.720;2023-10-09T02:21:04;7.07;;;3.83;;
23814;SDS011;12088;53.078;8.720;2023-10-09T02:23:32;5.07;;;3.03;;
23814;SDS011;12088;53.078;8.720;2023-10-09T02:26:21;10.53;;;3.63;;
23814;SDS011;12088;53.078;8.720;2023-10-09T02:28:51;7.60;;;3.67;;
23814;SDS011;12088;53.078;8.720;2023-10-09T02:31:38;9.03;;;3.47;;
23814;SDS011;12088;53.078;8.720;2023-10-09T02:34:11;9.00;;;3.47;;
23814;SDS011;12088;53.078;8.720;2023-10-09T02:36:40;6.40;;;4.03;;
23814;SDS011;12088;53.078;8.720;2023-10-09T02:39:14;7.67;;;4.03;;
23814;SDS011;12088;53.078;8.720;2023-10-09T02:41:56;5.50;;;4.13;;
23814;SDS011;12088;53.078;8.720;2023-10-09T02:44:40;7.07;;;4.00;;
23814;SDS011;12088;53.078;8.720;2023-10-09T02:47:14;7.87;;;4.60;;
23814;SDS011;12088;53.078;8.720;2023-10-09T02:49:49;8.80;;;3.63;;
23814;SDS011;12088;53.078;8.720;2023-10-09T02:52:16;6.43;;;3.67;;
23814;SDS011;12088;53.078;8.720;2023-10-09T02:54:50;12.13;;;4.43;;
23814;SDS011;12088;53.078;8.720;2023-10-09T02:57:24;8.23;;;4.30;;
23814;SDS011;12088;53.078;8.720;2023-10-09T03:00:05;8.60;;;4.63;;
23814;SDS011;12088;53.078;8.720;2023-10-09T03:02:43;8.37;;;4.30;;
23814;SDS011;12088;53.078;8.720;2023-10-09T03:05:14;8.07;;;4.27;;
23814;SDS011;12088;53.078;8.720;2023-10-09T03:07:41;7.10;;;3.93;;
23814;SDS011;12088;53.078;8.720;2023-10-09T03:10:07;5.37;;;3.73;;
23814;SDS011;12088;53.078;8.720;2023-10-09T03:12:34;6.37;;;3.60;;
23814;SDS011;12088;53.078;8.720;2023-10-09T03:15:01;6.70;;;3.47;;
23814;SDS011;12088;53.078;8.720;2023-10-09T03:17:30;5.93;;;3.30;;
23814;SDS011;12088;53.078;8.720;2023-10-09T03:19:59;6.47;;;3.60;;
23814;SDS011;12088;53.078;8.720;2023-10-09T03:22:34;4.57;;;3.50;;
23814;SDS011;12088;53.078;8.720;2023-10-09T03:25:00;5.73;;;3.43;;
23814;SDS011;12088;53.078;8.720;2023-10-09T03:27:26;6.10;;;3.80;;
23814;SDS011;12088;53.078;8.720;2023-10-09T03:29:51;5.70;;;3.67;;
23814;SDS011;12088;53.078;8.720;2023-10-09T03:32:18;6.27;;;3.40;;
23814;SDS011;12088;53.078;8.720;2023-10-09T03:34:44;6.37;;;3.73;;
23814;SDS011;12088;53.078;8.720;2023-10-09T03:37:10;5.67;;;4.00;;
23814;SDS011;12088;53.078;8.720;2023-10-09T03:39:47;7.67;;;3.70;;
23814;SDS011;12088;53.078;8.720;2023-10-09T03:42:13;5.40;;;3.87;;
23814;SDS011;12088;53.078;8.720;2023-10-09T03:44:45;9.30;;;3.97;;
23814;SDS011;12088;53.078;8.720;2023-10-09T03:47:17;8.23;;;4.20;;
23814;SDS011;12088;53.078;8.720;2023-10-09T03:49:47;6.00;;;3.97;;
23814;SDS011;12088;53.078;8.720;2023-10-09T03:52:18;7.03;;;4.57;;
23814;SDS011;12088;53.078;8.720;2023-10-09T03:54:44;5.90;;;3.90;;
23814;SDS011;12088;53.078;8.720;2023-10-09T03:57:14;6.87;;;3.90;;
23814;SDS011;12088;53.078;8.720;2023-10-09T03:59:49;7.93;;;4.17;;
23814;SDS011;12088;53.078;8.720;2023-10-09T04:02:16;8.73;;;4.77;;
23814;SDS011;12088;53.078;8.720;2023-10-09T04:04:42;8.43;;;4.60;;
23814;SDS011;12088;53.078;8.720;2023-10-09T04:07:12;9.90;;;5.07;;
23814;SDS011;12088;53.078;8.720;2023-10-09T04:09:39;8.07;;;4.83;;
23814;SDS011;12088;53.078;8.720;2023-10-09T04:12:09;10.40;;;5.27;;
23814;SDS011;12088;53.078;8.720;2023-10-09T04:14:38;10.70;;;5.53;;
23814;SDS011;12088;53.078;8.720;2023-10-09T04:17:20;7.83;;;5.00;;
23814;SDS011;12088;53.078;8.720;2023-10-09T04:19:58;9.53;;;5.27;;
23814;SDS011;12088;53.078;8.720;2023-10-09T04:22:43;10.47;;;5.27;;
23814;SDS011;12088;53.078;8.720;2023-10-09T04:25:29;14.37;;;6.37;;
23814;SDS011;12088;53.078;8.720;2023-10-09T04:28:05;11.57;;;5.97;;
23814;SDS011;12088;53.078;8.720;2023-10-09T04:30:40;13.73;;;7.03;;
23814;SDS011;12088;53.078;8.720;2023-10-09T04:33:11;11.43;;;6.10;;
23814;SDS011;12088;53.078;8.720;2023-10-09T04:35:54;10.87;;;6.03;;
23814;SDS011;12088;53.078;8.720;2023-10-09T04:38:40;15.07;;;7.00;;
23814;SDS011;12088;53.078;8.720;2023-10-09T04:41:20;13.93;;;7.27;;
23814;SDS011;12088;53.078;8.720;2023-10-09T04:43:58;11.13;;;7.13;;
23814;SDS011;12088;53.078;8.720;2023-10-09T04:46:43;14.30;;;7.23;;
23814;SDS011;12088;53.078;8.720;2023-10-09T04:49:09;15.90;;;8.07;;
23814;SDS011;12088;53.078;8.720;2023-10-09T04:51:54;16.87;;;7.63;;
23814;SDS011;12088;53.078;8.720;2023-10-09T04:54:43;14.37;;;7.90;;
23814;SDS011;12088;53.078;8.720;2023-10-09T04:57:27;20.43;;;9.23;;
23814;SDS011;12088;53.078;8.720;2023-10-09T04:59:52;18.27;;;8.70;;
23814;SDS011;12088;53.078;8.720;2023-10-09T05:02:23;18.23;;;9.20;;
23814;SDS011;12088;53.078;8.720;2023-10-09T05:05:01;19.23;;;9.60;;
23814;SDS011;12088;53.078;8.720;2023-10-09T05:08:02;22.23;;;10.27;;
23814;SDS011;12088;53.078;8.720;2023-10-09T05:10:43;23.77;;;10.10;;
23814;SDS011;12088;53.078;8.720;2023-10-09T05:13:28;22.23;;;10.27;;
23814;SDS011;12088;53.078;8.720;2023-10-09T05:16:03;21.90;;;10.77;;
23814;SDS011;12088;53.078;8.720;2023-10-09T05:18:29;21.87;;;10.30;;
23814;SDS011;12088;53.078;8.720;2023-10-09T05:21:01;20.23;;;9.60;;
23814;SDS011;12088;53.078;8.720;2023-10-09T05:23:50;24.47;;;10.90;;
23814;SDS011;12088;53.078;8.720;2023-10-09T05:26:34;29.43;;;12.70;;
23814;SDS011;12088;53.078;8.720;2023-10-09T05:29:25;29.63;;;14.23;;
23814;SDS011;12088;53.078;8.720;2023-10-09T05:31:54;25.27;;;12.20;;
23814;SDS011;12088;53.078;8.720;2023-10-09T05:34:29;29.43;;;12.63;;
23814;SDS011;12088;53.078;8.720;2023-10-09T05:37:13;32.00;;;14.07;;
23814;SDS011;12088;53.078;8.720;2023-10-09T05:39:46;33.83;;;14.37;;
23814;SDS011;12088;53.078;8.720;2023-10-09T05:42:44;30.20;;;14.27;;
23814;SDS011;12088;53.078;8.720;2023-10-09T05:47:48;47.27;;;19.93;;
23814;SDS011;12088;53.078;8.720;2023-10-09T05:50:33;53.43;;;21.13;;
23814;SDS011;12088;53.078;8.720;2023-10-09T05:52:59;57.30;;;21.27;;
23814;SDS011;12088;53.078;8.720;2023-10-09T05:55:26;57.97;;;22.93;;
23814;SDS011;12088;53.078;8.720;2023-10-09T05:58:11;65.70;;;24.70;;
23814;SDS011;12088;53.078;8.720;2023-10-09T06:00:55;76.20;;;25.43;;
23814;SDS011;12088;53.078;8.720;2023-10-09T06:03:39;64.20;;;24.30;;
23814;SDS011;12088;53.078;8.720;2023-10-09T06:06:14;67.93;;;25.30;;
23814;SDS011;12088;53.078;8.720;2023-10-09T06:08:58;80.63;;;26.93;;
23814;SDS011;12088;53.078;8.720;2023-10-09T06:11:46;93.63;;;30.40;;
23814;SDS011;12088;53.078;8.720;2023-10-09T06:14:13;83.73;;;29.80;;
23814;SDS011;12088;53.078;8.720;2023-10-09T06:16:50;80.43;;;29.23;;
23814;SDS011;12088;53.078;8.720;2023-10-09T06:19:22;86.83;;;31.10;;
23814;SDS011;12088;53.078;8.720;2023-10-09T06:21:55;97.20;;;33.20;;
23814;SDS011;12088;53.078;8.720;2023-10-09T06:24:47;91.13;;;32.80;;
23814;SDS011;12088;53.078;8.720;2023-10-09T06:27:18;95.80;;;32.57;;
23814;SDS011;12088;53.078;8.720;2023-10-09T06:29:59;93.10;;;32.43;;
23814;SDS011;12088;53.078;8.720;2023-10-09T06:32:40;102.83;;;35.00;;
23814;SDS011;12088;53.078;8.720;2023-10-09T06:35:16;99.67;;;35.00;;
23814;SDS011;12088;53.078;8.720;2023-10-09T06:38:02;101.37;;;35.50;;
23814;SDS011;12088;53.078;8.720;2023-10-09T06:40:35;94.57;;;34.77;;
23814;SDS011;12088;53.078;8.720;2023-10-09T06:43:23;96.93;;;35.40;;
23814;SDS011;12088;53.078;8.720;2023-10-09T06:48:44;95.70;;;36.37;;
23814;SDS011;12088;53.078;8.720;2023-10-09T06:51:14;89.47;;;35.60;;
23814;SDS011;12088;53.078;8.720;2023-10-09T06:56:24;94.47;;;36.97;;
23814;SDS011;12088;53.078;8.720;2023-10-09T06:59:00;86.73;;;34.47;;
23814;SDS011;12088;53.078;8.720;2023-10-09T07:01:40;96.93;;;36.67;;
23814;SDS011;12088;53.078;8.720;2023-10-09T07:04:11;92.40;;;36.53;;
23814;SDS011;12088;53.078;8.720;2023-10-09T07:06:44;81.90;;;33.47;;
23814;SDS011;12088;53.078;8.720;2023-10-09T07:09:10;91.13;;;36.03;;
23814;SDS011;12088;53.078;8.720;2023-10-09T07:11:41;92.03;;;37.47;;
23814;SDS011;12088;53.078;8.720;2023-10-09T07:19:32;77.73;;;33.10;;
23814;SDS011;12088;53.078;8.720;2023-10-09T07:22:08;76.20;;;32.83;;
23814;SDS011;12088;53.078;8.720;2023-10-09T07:24:47;87.73;;;33.47;;
23814;SDS011;12088;53.078;8.720;2023-10-09T07:30:07;69.87;;;33.10;;
23814;SDS011;12088;53.078;8.720;2023-10-09T07:32:58;70.00;;;31.97;;
23814;SDS011;12088;53.078;8.720;2023-10-09T07:35:50;76.83;;;32.63;;
23814;SDS011;12088;53.078;8.720;2023-10-09T07:38:19;66.23;;;30.03;;
23814;SDS011;12088;53.078;8.720;2023-10-09T07:40:53;69.17;;;33.03;;
23814;SDS011;12088;53.078;8.720;2023-10-09T07:43:20;78.97;;;32.97;;
23814;SDS011;12088;53.078;8.720;2023-10-09T07:45:52;70.30;;;32.97;;
23814;SDS011;12088;53.078;8.720;2023-10-09T07:48:26;66.27;;;31.90;;
23814;SDS011;12088;53.078;8.720;2023-10-09T07:51:03;68.43;;;30.33;;
23814;SDS011;12088;53.078;8.720;2023-10-09T07:53:36;61.40;;;28.40;;
23814;SDS011;12088;53.078;8.720;2023-10-09T07:56:08;75.27;;;30.37;;
23814;SDS011;12088;53.078;8.720;2023-10-09T07:58:34;68.27;;;30.97;;
23814;SDS011;12088;53.078;8.720;2023-10-09T08:01:11;58.73;;;28.50;;
23814;SDS011;12088;53.078;8.720;2023-10-09T08:03:56;65.60;;;30.37;;
23814;SDS011;12088;53.078;8.720;2023-10-09T08:06:30;64.57;;;28.17;;
23814;SDS011;12088;53.078;8.720;2023-10-09T08:09:05;56.60;;;28.63;;
23814;SDS011;12088;53.078;8.720;2023-10-09T08:11:37;58.90;;;27.70;;
23814;SDS011;12088;53.078;8.720;2023-10-09T08:14:08;54.80;;;27.33;;
23814;SDS011;12088;53.078;8.720;2023-10-09T08:16:54;59.10;;;28.10;;
23814;SDS011;12088;53.078;8.720;2023-10-09T08:19:38;60.20;;;27.17;;
23814;SDS011;12088;53.078;8.720;2023-10-09T08:22:20;57.17;;;26.67;;
23814;SDS011;12088;53.078;8.720;2023-10-09T08:24:50;64.07;;;28.87;;
23814;SDS011;12088;53.078;8.720;2023-10-09T08:27:22;65.67;;;28.87;;
23814;SDS011;12088;53.078;8.720;2023-10-09T08:30:00;62.60;;;28.40;;
23814;SDS011;12088;53.078;8.720;2023-10-09T08:32:39;51.37;;;24.63;;
23814;SDS011;12088;53.078;8.720;2023-10-09T08:35:07;52.60;;;25.57;;
23814;SDS011;12088;53.078;8.720;2023-10-09T08:37:53;57.50;;;26.37;;
23814;SDS011;12088;53.078;8.720;2023-10-09T08:40:45;53.93;;;24.97;;
23814;SDS011;12088;53.078;8.720;2023-10-09T08:43:16;52.37;;;24.73;;
23814;SDS011;12088;53.078;8.720;2023-10-09T08:45:57;53.00;;;24.40;;
23814;SDS011;12088;53.078;8.720;2023-10-09T08:48:26;53.53;;;24.43;;
23814;SDS011;12088;53.078;8.720;2023-10-09T08:50:53;46.50;;;23.57;;
23814;SDS011;12088;53.078;8.720;2023-10-09T08:53:23;53.80;;;24.83;;
23814;SDS011;12088;53.078;8.720;2023-10-09T08:55:49;54.43;;;24.37;;
23814;SDS011;12088;53.078;8.720;2023-10-09T08:58:16;47.30;;;23.67;;
23814;SDS011;12088;53.078;8.720;2023-10-09T09:00:50;48.83;;;24.70;;
23814;SDS011;12088;53.078;8.720;2023-10-09T09:03:17;46.43;;;24.20;;
23814;SDS011;12088;53.078;8.720;2023-10-09T09:05:48;49.37;;;24.00;;
23814;SDS011;12088;53.078;8.720;2023-10-09T09:08:27;47.33;;;24.00;;
23814;SDS011;12088;53.078;8.720;2023-10-09T09:11:07;47.97;;;23.07;;
23814;SDS011;12088;53.078;8.720;2023-10-09T09:16:40;50.47;;;23.50;;
23814;SDS011;12088;53.078;8.720;2023-10-09T09:19:09;43.60;;;23.17;;
23814;SDS011;12088;53.078;8.720;2023-10-09T09:21:56;47.37;;;22.87;;
23814;SDS011;12088;53.078;8.720;2023-10-09T09:24:24;43.43;;;23.47;;
23814;SDS011;12088;53.078;8.720;2023-10-09T09:26:51;47.83;;;22.47;;
23814;SDS011;12088;53.078;8.720;2023-10-09T09:32:02;40.92;;;21.30;;
23814;SDS011;12088;53.078;8.720;2023-10-09T09:34:51;39.57;;;20.50;;
23814;SDS011;12088;53.078;8.720;2023-10-09T09:37:34;38.00;;;21.10;;
23814;SDS011;12088;53.078;8.720;2023-10-09T09:40:02;36.80;;;20.67;;
23814;SDS011;12088;53.078;8.720;2023-10-09T09:42:54;41.13;;;19.58;;
23814;SDS011;12088;53.078;8.720;2023-10-09T09:45:29;45.28;;;20.33;;
23814;SDS011;12088;53.078;8.720;2023-10-09T09:48:00;37.03;;;19.35;;
23814;SDS011;12088;53.078;8.720;2023-10-09T09:50:31;43.28;;;20.88;;
23814;SDS011;12088;53.078;8.720;2023-10-09T09:52:58;34.33;;;18.83;;
23814;SDS011;12088;53.078;8.720;2023-10-09T09:55:27;34.85;;;18.45;;
23814;SDS011;12088;53.078;8.720;2023-10-09T09:57:58;42.85;;;19.73;;
23814;SDS011;12088;53.078;8.720;2023-10-09T10:00:29;38.60;;;18.97;;
23814;SDS011;12088;53.078;8.720;2023-10-09T10:03:09;34.85;;;18.88;;
23814;SDS011;12088;53.078;8.720;2023-10-09T10:05:42;39.75;;;19.98;;
23814;SDS011;12088;53.078;8.720;2023-10-09T10:08:11;37.75;;;18.55;;
23814;SDS011;12088;53.078;8.720;2023-10-09T10:10:59;37.58;;;18.48;;
23814;SDS011;12088;53.078;8.720;2023-10-09T10:16:06;36.55;;;18.88;;
23814;SDS011;12088;53.078;8.720;2023-10-09T10:19:01;33.38;;;17.27;;
23814;SDS011;12088;53.078;8.720;2023-10-09T10:21:35;35.47;;;19.80;;
23814;SDS011;12088;53.078;8.720;2023-10-09T10:24:47;35.30;;;16.75;;
23814;SDS011;12088;53.078;8.720;2023-10-09T10:27:19;30.08;;;17.42;;
23814;SDS011;12088;53.078;8.720;2023-10-09T10:35:20;32.70;;;16.40;;
23814;SDS011;12088;53.078;8.720;2023-10-09T10:40:49;25.83;;;14.75;;
23814;SDS011;12088;53.078;8.720;2023-10-09T10:43:25;27.25;;;14.88;;
23814;SDS011;12088;53.078;8.720;2023-10-09T10:46:04;29.33;;;16.08;;
23814;SDS011;12088;53.078;8.720;2023-10-09T10:52:19;32.45;;;15.82;;
23814;SDS011;12088;53.078;8.720;2023-10-09T10:55:09;29.08;;;13.88;;
23814;SDS011;12088;53.078;8.720;2023-10-09T10:58:03;28.23;;;14.73;;
23814;SDS011;12088;53.078;8.720;2023-10-09T11:00:39;27.02;;;14.23;;
23814;SDS011;12088;53.078;8.720;2023-10-09T11:03:24;26.38;;;14.02;;
23814;SDS011;12088;53.078;8.720;2023-10-09T11:06:26;29.58;;;13.95;;
23814;SDS011;12088;53.078;8.720;2023-10-09T11:09:06;24.27;;;13.35;;
23814;SDS011;12088;53.078;8.720;2023-10-09T11:11:48;24.30;;;13.18;;
23814;SDS011;12088;53.078;8.720;2023-10-09T11:14:15;23.38;;;13.57;;
23814;SDS011;12088;53.078;8.720;2023-10-09T11:16:42;24.20;;;13.55;;
23814;SDS011;12088;53.078;8.720;2023-10-09T11:19:12;27.13;;;13.55;;
23814;SDS011;12088;53.078;8.720;2023-10-09T11:21:52;20.50;;;12.07;;
23814;SDS011;12088;53.078;8.720;2023-10-09T11:24:31;29.73;;;13.05;;
23814;SDS011;12088;53.078;8.720;2023-10-09T11:27:04;27.30;;;12.90;;
23814;SDS011;12088;53.078;8.720;2023-10-09T11:29:31;22.15;;;11.30;;
23814;SDS011;12088;53.078;8.720;2023-10-09T11:32:22;22.17;;;11.20;;
23814;SDS011;12088;53.078;8.720;2023-10-09T11:34:49;18.42;;;11.52;;
23814;SDS011;12088;53.078;8.720;2023-10-09T11:37:19;16.27;;;10.73;;
23814;SDS011;12088;53.078;8.720;2023-10-09T11:39:54;16.98;;;10.68;;
23814;SDS011;12088;53.078;8.720;2023-10-09T11:42:21;15.90;;;9.35;;
23814;SDS011;12088;53.078;8.720;2023-10-09T11:45:23;16.30;;;10.10;;
23814;SDS011;12088;53.078;8.720;2023-10-09T11:47:54;17.73;;;9.10;;
23814;SDS011;12088;53.078;8.720;2023-10-09T11:50:43;18.02;;;9.93;;
23814;SDS011;12088;53.078;8.720;2023-10-09T11:53:42;17.70;;;9.57;;
23814;SDS011;12088;53.078;8.720;2023-10-09T11:56:10;15.68;;;8.75;;
23814;SDS011;12088;53.078;8.720;2023-10-09T11:58:41;13.57;;;7.97;;
23814;SDS011;12088;53.078;8.720;2023-10-09T12:01:13;15.60;;;7.93;;
23814;SDS011;12088;53.078;8.720;2023-10-09T12:03:46;16.45;;;8.35;;
23814;SDS011;12088;53.078;8.720;2023-10-09T12:06:15;13.55;;;6.75;;
23814;SDS011;12088;53.078;8.720;2023-10-09T12:08:44;9.20;;;6.82;;
23814;SDS011;12088;53.078;8.720;2023-10-09T12:11:12;14.32;;;6.75;;
23814;SDS011;12088;53.078;8.720;2023-10-09T12:13:39;12.68;;;6.07;;
23814;SDS011;12088;53.078;8.720;2023-10-09T12:16:07;13.52;;;5.95;;
23814;SDS011;12088;53.078;8.720;2023-10-09T12:18:34;9.15;;;5.10;;
23814;SDS011;12088;53.078;8.720;2023-10-09T12:21:01;14.20;;;5.90;;
23814;SDS011;12088;53.078;8.720;2023-10-09T12:23:29;12.57;;;5.85;;
23814;SDS011;12088;53.078;8.720;2023-10-09T12:25:59;12.45;;;4.90;;
23814;SDS011;12088;53.078;8.720;2023-10-09T12:28:25;11.68;;;5.25;;
23814;SDS011;12088;53.078;8.720;2023-10-09T12:30:50;10.63;;;5.03;;
23814;SDS011;12088;53.078;8.720;2023-10-09T12:33:17;11.75;;;4.97;;
23814;SDS011;12088;53.078;8.720;2023-10-09T12:35:53;11.05;;;4.57;;
23814;SDS011;12088;53.078;8.720;2023-10-09T12:38:25;10.00;;;4.07;;
23814;SDS011;12088;53.078;8.720;2023-10-09T12:43:55;9.38;;;4.03;;
23814;SDS011;12088;53.078;8.720;2023-10-09T12:46:23;10.82;;;4.18;;
23814;SDS011;12088;53.078;8.720;2023-10-09T12:48:50;11.00;;;4.25;;
23814;SDS011;12088;53.078;8.720;2023-10-09T12:51:19;13.65;;;3.70;;
23814;SDS011;12088;53.078;8.720;2023-10-09T12:53:45;12.20;;;3.75;;
23814;SDS011;12088;53.078;8.720;2023-10-09T12:56:13;9.13;;;3.40;;
23814;SDS011;12088;53.078;8.720;2023-10-09T12:58:43;7.63;;;3.53;;
23814;SDS011;12088;53.078;8.720;2023-10-09T13:01:17;10.20;;;3.25;;
23814;SDS011;12088;53.078;8.720;2023-10-09T13:03:45;7.93;;;3.55;;
23814;SDS011;12088;53.078;8.720;2023-10-09T13:06:14;8.68;;;3.83;;
23814;SDS011;12088;53.078;8.720;2023-10-09T13:08:40;10.70;;;3.45;;
23814;SDS011;12088;53.078;8.720;2023-10-09T13:11:08;9.63;;;3.97;;
23814;SDS011;12088;53.078;8.720;2023-10-09T13:13:35;11.13;;;3.47;;
23814;SDS011;12088;53.078;8.720;2023-10-09T13:16:15;7.00;;;3.47;;
23814;SDS011;12088;53.078;8.720;2023-10-09T13:18:53;9.68;;;3.30;;
23814;SDS011;12088;53.078;8.720;2023-10-09T13:21:23;8.68;;;3.63;;
23814;SDS011;12088;53.078;8.720;2023-10-09T13:23:56;11.52;;;3.53;;
23814;SDS011;12088;53.078;8.720;2023-10-09T13:26:23;11.05;;;3.60;;
23814;SDS011;12088;53.078;8.720;2023-10-09T13:28:53;9.05;;;3.35;;
23814;SDS011;12088;53.078;8.720;2023-10-09T13:31:20;12.68;;;3.75;;
23814;SDS011;12088;53.078;8.720;2023-10-09T13:33:47;13.77;;;3.83;;
23814;SDS011;12088;53.078;8.720;2023-10-09T13:36:13;9.32;;;3.75;;
23814;SDS011;12088;53.078;8.720;2023-10-09T13:38:52;6.63;;;3.10;;
23814;SDS011;12088;53.078;8.720;2023-10-09T13:41:19;12.48;;;3.10;;
23814;SDS011;12088;53.078;8.720;2023-10-09T13:43:44;10.82;;;3.60;;
23814;SDS011;12088;53.078;8.720;2023-10-09T13:46:10;8.07;;;3.40;;
23814;SDS011;12088;53.078;8.720;2023-10-09T13:48:37;10.90;;;3.17;;
23814;SDS011;12088;53.078;8.720;2023-10-09T13:51:06;6.95;;;3.38;;
23814;SDS011;12088;53.078;8.720;2023-10-09T13:53:34;13.30;;;3.90;;
23814;SDS011;12088;53.078;8.720;2023-10-09T13:58:45;5.97;;;2.80;;
23814;SDS011;12088;53.078;8.720;2023-10-09T14:01:20;6.15;;;2.80;;
23814;SDS011;12088;53.078;8.720;2023-10-09T14:03:58;6.72;;;2.80;;
23814;SDS011;12088;53.078;8.720;2023-10-09T14:06:26;11.60;;;2.88;;
23814;SDS011;12088;53.078;8.720;2023-10-09T14:11:33;6.63;;;2.25;;
23814;SDS011;12088;53.078;8.720;2023-10-09T14:14:03;13.75;;;4.78;;
23814;SDS011;12088;53.078;8.720;2023-10-09T14:16:34;12.98;;;3.45;;
23814;SDS011;12088;53.078;8.720;2023-10-09T14:19:00;10.50;;;3.20;;
23814;SDS011;12088;53.078;8.720;2023-10-09T14:21:32;8.07;;;2.75;;
23814;SDS011;12088;53.078;8.720;2023-10-09T14:24:00;14.23;;;3.55;;
23814;SDS011;12088;53.078;8.720;2023-10-09T14:26:26;9.65;;;2.90;;
23814;SDS011;12088;53.078;8.720;2023-10-09T14:28:53;16.42;;;4.00;;
23814;SDS011;12088;53.078;8.720;2023-10-09T14:31:21;11.63;;;3.67;;
23814;SDS011;12088;53.078;8.720;2023-10-09T14:33:55;12.55;;;3.58;;
23814;SDS011;12088;53.078;8.720;2023-10-09T14:36:21;13.57;;;4.35;;
23814;SDS011;12088;53.078;8.720;2023-10-09T14:38:50;12.20;;;3.30;;
23814;SDS011;12088;53.078;8.720;2023-10-09T14:41:20;10.05;;;3.55;;
23814;SDS011;12088;53.078;8.720;2023-10-09T14:43:48;6.00;;;2.53;;
23814;SDS011;12088;53.078;8.720;2023-10-09T14:46:15;11.15;;;3.17;;
23814;SDS011;12088;53.078;8.720;2023-10-09T14:48:48;25.23;;;5.82;;
23814;SDS011;12088;53.078;8.720;2023-10-09T14:51:14;8.52;;;2.90;;
23814;SDS011;12088;53.078;8.720;2023-10-09T14:53:40;14.98;;;3.70;;
23814;SDS011;12088;53.078;8.720;2023-10-09T14:56:06;19.38;;;4.28;;
23814;SDS011;12088;53.078;8.720;2023-10-09T14:58:35;6.93;;;2.30;;
23814;SDS011;12088;53.078;8.720;2023-10-09T15:01:10;5.50;;;2.15;;
23814;SDS011;12088;53.078;8.720;2023-10-09T15:03:40;5.45;;;2.40;;
23814;SDS011;12088;53.078;8.720;2023-10-09T15:06:08;6.30;;;2.22;;
23814;SDS011;12088;53.078;8.720;2023-10-09T15:08:36;7.18;;;2.38;;
23814;SDS011;12088;53.078;8.720;2023-10-09T15:11:01;4.43;;;2.22;;
23814;SDS011;12088;53.078;8.720;2023-10-09T15:13:27;6.80;;;2.40;;
23814;SDS011;12088;53.078;8.720;2023-10-09T15:15:53;8.48;;;2.42;;
23814;SDS011;12088;53.078;8.720;2023-10-09T15:18:20;8.10;;;2.45;;
23814;SDS011;12088;53.078;8.720;2023-10-09T15:20:46;7.70;;;2.38;;
23814;SDS011;12088;53.078;8.720;2023-10-09T15:23:16;7.78;;;2.85;;
23814;SDS011;12088;53.078;8.720;2023-10-09T15:25:44;11.68;;;3.10;;
23814;SDS011;12088;53.078;8.720;2023-10-09T15:28:14;7.53;;;3.13;;
23814;SDS011;12088;53.078;8.720;2023-10-09T15:30:41;6.68;;;2.90;;
23814;SDS011;12088;53.078;8.720;2023-10-09T15:33:07;7.07;;;2.83;;
23814;SDS011;12088;53.078;8.720;2023-10-09T15:35:34;10.38;;;3.65;;
23814;SDS011;12088;53.078;8.720;2023-10-09T15:38:00;9.63;;;3.58;;
23814;SDS011;12088;53.078;8.720;2023-10-09T15:40:29;9.45;;;3.35;;
23814;SDS011;12088;53.078;8.720;2023-10-09T15:42:59;14.48;;;3.10;;
23814;SDS011;12088;53.078;8.720;2023-10-09T15:45:25;9.18;;;2.53;;
23814;SDS011;12088;53.078;8.720;2023-10-09T15:47:53;13.55;;;3.03;;
23814;SDS011;12088;53.078;8.720;2023-10-09T15:50:20;5.15;;;2.20;;
23814;SDS011;12088;53.078;8.720;2023-10-09T15:52:50;5.60;;;2.30;;
23814;SDS011;12088;53.078;8.720;2023-10-09T15:55:18;5.03;;;1.98;;
23814;SDS011;12088;53.078;8.720;2023-10-09T15:57:46;6.32;;;2.38;;